Time;durP1;ratioP1;P1;durP2;ratioP2;P2;SDS_P1;SDS_P2;PMS_P1;PMS_P2;Temp;Humidity;BMP_temperature;BMP_pressure;BME280_temperature;BME280_humidity;BME280_pressure;Samples;Min_cycle;Max_cycle;Signal;HPM_P1;HPM_P2
2023/01/05 00:00:00;;;;;;;0.80;0.30;;;10.20;99.90;;;;;;2603299;54;20026;31
2023/01/05 00:02:46;;;;;;;0.50;0.30;;;10.20;99.90;;;;;;2603310;54;20022;31
2023/01/05 00:05:23;;;;;;;;;;;10.20;99.90;;;;;;2603594;54;20022;31
2023/01/05 00:07:57;;;;;;;0.30;0.20;;;10.30;99.90;;;;;;2603428;54;20729;31
2023/01/05 00:24:38;;;;;;;;;;;10.40;99.90;;;;;;2603508;54;20763;31
2023/01/05 00:27:12;;;;;;;1.27;0.40;;;10.40;99.90;;;;;;2701502;39;20460;31
2023/01/05 00:29:47;;;;;;;0.70;0.40;;;10.40;99.90;;;;;;2603152;54;20161;31
2023/01/05 00:32:26;;;;;;;2.17;0.60;;;10.50;99.90;;;;;;2621756;46;20129;31
2023/01/05 00:35:01;;;;;;;1.23;0.40;;;10.40;99.90;;;;;;2603188;54;20907;31
2023/01/05 00:37:38;;;;;;;1.00;0.35;;;10.40;99.90;;;;;;2603311;54;20031;31
2023/01/05 00:40:16;;;;;;;1.42;0.32;;;10.50;99.90;;;;;;2603259;54;20886;31
2023/01/05 00:42:51;;;;;;;1.20;0.50;;;10.50;99.90;;;;;;2621412;46;20854;31
2023/01/05 00:45:25;;;;;;;1.00;0.30;;;10.50;99.90;;;;;;2603077;54;20819;31
2023/01/05 00:48:03;;;;;;;0.90;0.30;;;10.50;99.90;;;;;;2603059;54;20030;31
2023/01/05 00:50:38;;;;;;;1.50;0.30;;;10.60;99.90;;;;;;2603323;54;20026;31
2023/01/05 00:53:14;;;;;;;1.65;0.20;;;10.60;99.90;;;;;;2603029;54;20030;31
2023/01/05 00:55:58;;;;;;;0.77;0.20;;;10.60;99.90;;;;;;2603205;54;21001;31
2023/01/05 00:58:34;;;;;;;5.45;0.30;;;10.60;99.90;;;;;;2603183;54;20912;31
2023/01/05 01:01:12;;;;;;;1.15;0.30;;;10.60;99.90;;;;;;2602990;54;20085;31
2023/01/05 01:03:50;;;;;;;1.40;0.40;;;10.60;99.90;;;;;;2621036;46;25051;31
2023/01/05 01:06:25;;;;;;;1.92;0.38;;;10.70;99.90;;;;;;2603089;54;20743;31
2023/01/05 01:09:01;;;;;;;1.92;0.82;;;10.70;99.90;;;;;;2602935;54;20570;31
2023/01/05 01:11:37;;;;;;;3.50;0.40;;;10.70;99.90;;;;;;2603126;54;20023;31
2023/01/05 01:14:13;;;;;;;2.95;0.60;;;10.80;99.90;;;;;;2603105;54;20031;31
2023/01/05 01:16:49;;;;;;;;;;;10.80;99.90;;;;;;2603112;54;20046;31
2023/01/05 01:19:28;;;;;;;1.30;0.20;;;10.80;99.90;;;;;;2603090;54;20785;31
2023/01/05 01:22:03;;;;;;;2.55;0.30;;;10.80;99.90;;;;;;2603179;54;20085;31
2023/01/05 01:24:39;;;;;;;2.60;0.30;;;10.90;99.90;;;;;;2602541;54;20848;31
2023/01/05 01:27:15;;;;;;;3.50;0.40;;;10.90;99.90;;;;;;2602853;54;20172;31
2023/01/05 01:29:52;;;;;;;1.23;0.60;;;10.90;99.90;;;;;;2602889;54;20991;31
2023/01/05 01:32:29;;;;;;;1.60;0.35;;;11.00;99.90;;;;;;2602341;54;20853;31
2023/01/05 01:35:09;;;;;;;3.28;0.40;;;11.00;99.90;;;;;;2602868;54;20577;31
2023/01/05 01:37:45;;;;;;;3.00;0.55;;;11.00;99.90;;;;;;2602980;54;20118;31
2023/01/05 01:40:21;;;;;;;2.27;0.53;;;11.00;99.90;;;;;;2602809;54;20051;31
2023/01/05 01:42:57;;;;;;;4.05;0.50;;;11.00;99.90;;;;;;2603400;54;20026;31
2023/01/05 01:45:32;;;;;;;2.67;0.30;;;11.00;99.90;;;;;;2603741;54;20789;31
2023/01/05 01:48:09;;;;;;;1.35;0.30;;;11.00;99.90;;;;;;2622148;46;20026;31
2023/01/05 01:50:47;;;;;;;4.63;0.47;;;11.00;99.90;;;;;;2603602;54;20385;31
2023/01/05 01:53:25;;;;;;;4.35;0.50;;;11.00;99.90;;;;;;2603725;54;20069;31
2023/01/05 01:56:01;;;;;;;2.33;0.30;;;11.00;99.90;;;;;;2603856;54;20569;31
2023/01/05 01:58:36;;;;;;;4.60;0.63;;;11.00;99.90;;;;;;2602775;54;19942;31
2023/01/05 02:01:12;;;;;;;1.30;0.30;;;11.00;99.90;;;;;;2702122;39;20639;31
2023/01/05 02:03:49;;;;;;;4.15;0.63;;;11.00;99.90;;;;;;2603732;54;20077;31
2023/01/05 02:06:26;;;;;;;5.60;0.70;;;11.00;99.90;;;;;;2603561;54;20864;31
2023/01/05 02:09:03;;;;;;;2.65;0.50;;;11.00;99.90;;;;;;2603475;54;20593;31
2023/01/05 02:11:44;;;;;;;2.97;0.60;;;10.90;99.90;;;;;;2603646;54;20034;31
2023/01/05 02:14:26;;;;;;;2.75;0.60;;;10.80;99.90;;;;;;2622219;46;20089;31
2023/01/05 02:17:08;;;;;;;3.25;0.50;;;10.80;99.90;;;;;;2603751;54;20624;31
2023/01/05 02:20:12;;;;;;;3.85;1.35;;;10.70;99.90;;;;;;2603832;54;20814;31
2023/01/05 02:23:17;;;;;;;3.85;1.70;;;10.60;99.90;;;;;;2603623;54;20100;31
2023/01/05 02:26:23;;;;;;;5.22;1.80;;;10.60;99.90;;;;;;2603484;54;20030;31
2023/01/05 02:28:57;;;;;;;6.63;2.10;;;10.60;99.90;;;;;;2603650;54;20897;31
2023/01/05 02:31:36;;;;;;;4.47;1.10;;;10.50;99.90;;;;;;2603520;54;20027;31
2023/01/05 02:34:16;;;;;;;5.05;0.90;;;10.40;99.90;;;;;;2603572;54;20786;31
2023/01/05 02:36:53;;;;;;;5.20;0.80;;;10.40;99.90;;;;;;2603720;54;20566;31
2023/01/05 02:39:32;;;;;;;3.08;0.68;;;10.40;99.90;;;;;;2603532;54;20022;31
2023/01/05 02:42:12;;;;;;;3.70;0.47;;;10.40;99.90;;;;;;2603549;54;20028;31
2023/01/05 02:44:50;;;;;;;3.17;0.50;;;10.30;99.90;;;;;;2603577;54;20231;31
2023/01/05 02:47:55;;;;;;;3.17;0.95;;;10.30;99.90;;;;;;2603384;54;20093;31
2023/01/05 02:50:32;;;;;;;5.60;0.55;;;10.30;99.90;;;;;;2702058;39;20583;31
2023/01/05 02:53:11;;;;;;;2.28;0.38;;;10.30;99.90;;;;;;2603656;54;20534;31
2023/01/05 02:55:48;;;;;;;2.80;0.70;;;10.30;99.90;;;;;;2603240;54;20089;31
2023/01/05 02:58:26;;;;;;;5.00;0.70;;;10.30;99.90;;;;;;2603441;54;20026;31
2023/01/05 03:01:04;;;;;;;5.75;0.82;;;10.20;99.90;;;;;;2603370;54;20026;31
2023/01/05 03:03:44;;;;;;;1.35;0.50;;;10.20;99.90;;;;;;2603549;54;20963;31
2023/01/05 03:06:23;;;;;;;3.03;0.60;;;10.20;99.90;;;;;;2603413;54;20140;31
2023/01/05 03:09:00;;;;;;;4.50;0.82;;;10.20;99.90;;;;;;2773283;31;21748;31
2023/01/05 03:14:30;;;;;;;5.40;1.00;;;10.10;99.90;;;;;;2603518;54;20592;31
2023/01/05 03:17:07;;;;;;;4.85;1.33;;;10.00;99.90;;;;;;2621560;46;20876;31
2023/01/05 03:19:50;;;;;;;3.70;0.93;;;9.90;99.90;;;;;;2603184;54;20029;31
2023/01/05 03:36:43;;;;;;;9.50;1.00;;;9.60;99.90;;;;;;2603460;54;20053;31
2023/01/05 03:39:25;;;;;;;2.05;0.60;;;9.60;99.90;;;;;;2603248;54;20042;31
2023/01/05 03:42:01;;;;;;;7.57;0.90;;;9.60;99.90;;;;;;2603328;54;21367;31
2023/01/05 03:44:38;;;;;;;7.20;1.05;;;9.60;99.90;;;;;;2603259;54;20036;31
2023/01/05 03:47:15;;;;;;;5.03;1.00;;;9.60;99.90;;;;;;2603263;54;20916;31
2023/01/05 03:49:52;;;;;;;8.77;1.23;;;9.50;99.90;;;;;;2603173;54;20034;31
2023/01/05 03:52:27;;;;;;;9.37;1.10;;;9.50;99.90;;;;;;2603060;54;22371;31
2023/01/05 03:55:03;;;;;;;3.80;1.20;;;9.40;99.90;;;;;;2603331;54;20330;31
2023/01/05 03:57:38;;;;;;;4.40;0.40;;;9.30;99.90;;;;;;2603194;54;20031;31
2023/01/05 04:00:19;;;;;;;2.88;0.32;;;9.10;99.90;;;;;;2603334;54;20944;31
2023/01/05 04:03:03;;;;;;;3.47;0.43;;;8.90;99.90;;;;;;2603277;54;20914;31
2023/01/05 04:05:39;;;;;;;5.18;0.40;;;8.80;99.90;;;;;;2603239;54;20026;31
2023/01/05 04:08:17;;;;;;;3.35;1.00;;;8.70;99.90;;;;;;2621621;46;20935;31
2023/01/05 04:10:55;;;;;;;8.63;0.30;;;8.60;99.90;;;;;;2603270;54;20045;31
2023/01/05 04:13:29;;;;;;;2.75;0.20;;;8.50;99.90;;;;;;2603177;54;20809;31
2023/01/05 04:16:06;;;;;;;1.33;0.40;;;8.50;99.90;;;;;;2603265;54;20128;31
2023/01/05 04:18:43;;;;;;;4.00;0.40;;;8.50;99.90;;;;;;2603037;54;20309;31
2023/01/05 04:21:21;;;;;;;2.33;0.20;;;8.50;99.90;;;;;;2602962;54;19941;31
2023/01/05 04:24:02;;;;;;;6.38;0.50;;;8.50;99.90;;;;;;2621307;46;20022;31
2023/01/05 04:26:41;;;;;;;2.83;0.40;;;8.50;99.90;;;;;;2603297;54;20029;31
2023/01/05 04:29:17;;;;;;;4.43;0.77;;;8.50;99.90;;;;;;2602911;54;20904;31
2023/01/05 04:31:55;;;;;;;7.70;0.80;;;8.50;99.90;;;;;;2602991;54;20024;31
2023/01/05 04:34:32;;;;;;;6.75;0.82;;;8.60;99.90;;;;;;2603061;54;20321;31
2023/01/05 04:37:10;;;;;;;6.75;0.68;;;8.50;99.90;;;;;;2602239;54;20807;31
2023/01/05 04:39:51;;;;;;;3.15;0.57;;;8.60;99.90;;;;;;2603217;54;20860;31
2023/01/05 04:42:26;;;;;;;7.00;0.60;;;8.60;99.90;;;;;;2603039;54;20052;31
2023/01/05 04:45:02;;;;;;;;;;;8.60;99.90;;;;;;2603520;54;20955;31
2023/01/05 04:47:40;;;;;;;3.85;1.20;;;8.60;99.90;;;;;;2603039;54;20720;31
2023/01/05 04:50:18;;;;;;;3.40;1.50;;;8.60;99.90;;;;;;2602375;54;20018;31
2023/01/05 04:52:55;;;;;;;4.43;1.40;;;8.70;99.90;;;;;;2602967;54;20029;31
2023/01/05 04:55:32;;;;;;;7.67;1.17;;;8.70;99.90;;;;;;2603087;54;20030;31
2023/01/05 04:58:09;;;;;;;5.63;1.13;;;8.80;99.90;;;;;;2602956;54;20885;31
2023/01/05 05:00:50;;;;;;;4.43;1.10;;;8.80;99.90;;;;;;2603226;54;20897;31
2023/01/05 05:03:25;;;;;;;6.03;1.00;;;8.80;99.90;;;;;;2603198;54;20893;31
2023/01/05 05:06:05;;;;;;;4.70;0.70;;;8.90;99.90;;;;;;2603000;54;22301;31
2023/01/05 05:08:44;;;;;;;3.25;0.70;;;8.90;99.90;;;;;;2603213;54;20026;31
2023/01/05 05:11:22;;;;;;;4.73;0.97;;;8.90;99.90;;;;;;2603266;54;20038;31
2023/01/05 05:13:59;;;;;;;4.55;1.13;;;8.90;99.90;;;;;;2602789;54;20893;31
2023/01/05 05:16:32;;;;;;;3.25;0.90;;;8.90;99.90;;;;;;2602999;54;20026;31
2023/01/05 05:19:07;;;;;;;2.78;1.17;;;8.80;99.90;;;;;;2603777;54;20829;31
2023/01/05 05:21:44;;;;;;;6.10;1.17;;;8.90;99.90;;;;;;2603671;54;20053;31
2023/01/05 05:24:19;;;;;;;5.57;0.95;;;8.80;99.90;;;;;;2603673;54;20355;31
2023/01/05 05:26:59;;;;;;;2.20;0.70;;;8.80;99.90;;;;;;2603164;54;20026;31
2023/01/05 05:29:34;;;;;;;5.40;0.73;;;8.80;99.90;;;;;;2603684;54;20034;31
2023/01/05 05:32:09;;;;;;;3.10;0.70;;;8.80;99.90;;;;;;2603936;54;19993;31
2023/01/05 05:34:45;;;;;;;2.70;0.43;;;8.70;99.90;;;;;;2603820;54;19961;31
2023/01/05 05:37:20;;;;;;;3.25;0.70;;;8.70;99.90;;;;;;2603381;54;20943;31
2023/01/05 05:39:55;;;;;;;2.33;0.57;;;8.70;99.90;;;;;;2603546;54;20901;31
2023/01/05 05:42:34;;;;;;;3.45;0.88;;;8.70;99.90;;;;;;2603674;54;20898;31
2023/01/05 05:45:13;;;;;;;0.77;0.40;;;8.60;99.90;;;;;;2603884;54;20049;31
2023/01/05 05:47:49;;;;;;;7.35;1.20;;;8.60;99.90;;;;;;2603736;54;20030;31
2023/01/05 05:50:27;;;;;;;6.55;1.83;;;8.60;99.90;;;;;;2603438;54;20038;31
2023/01/05 05:53:02;;;;;;;5.35;1.67;;;8.60;99.90;;;;;;2602825;54;20287;31
2023/01/05 05:55:38;;;;;;;2.37;0.60;;;8.60;99.90;;;;;;2603481;54;20937;31
2023/01/05 05:58:16;;;;;;;3.75;0.50;;;8.60;99.90;;;;;;2603802;54;20242;31
2023/01/05 06:00:50;;;;;;;4.25;0.68;;;8.60;99.90;;;;;;2603630;54;20842;31
2023/01/05 06:03:27;;;;;;;3.33;0.60;;;8.50;99.90;;;;;;2603657;54;20026;31
2023/01/05 06:06:03;;;;;;;3.17;0.50;;;8.60;99.90;;;;;;2603652;54;20859;31
2023/01/05 06:08:39;;;;;;;3.72;0.55;;;8.60;99.90;;;;;;2603555;54;20933;31
2023/01/05 06:11:19;;;;;;;2.70;0.80;;;8.50;99.90;;;;;;2603604;54;20877;31
2023/01/05 06:13:56;;;;;;;2.83;0.73;;;8.60;99.90;;;;;;2603681;54;20048;31
2023/01/05 06:16:34;;;;;;;9.27;0.53;;;8.60;99.90;;;;;;2603566;54;20576;31
2023/01/05 06:19:10;;;;;;;4.38;1.48;;;8.60;99.90;;;;;;2603606;54;19938;31
2023/01/05 06:21:46;;;;;;;7.18;1.33;;;8.60;99.90;;;;;;2603304;54;20073;31
2023/01/05 06:24:22;;;;;;;3.67;0.63;;;8.60;99.90;;;;;;2603602;54;20894;31
2023/01/05 06:26:57;;;;;;;2.17;1.00;;;8.60;99.90;;;;;;2603631;54;20030;31
2023/01/05 06:29:36;;;;;;;2.20;0.80;;;8.60;99.90;;;;;;2621936;46;20566;31
2023/01/05 06:32:12;;;;;;;4.68;1.35;;;8.60;99.90;;;;;;2603763;54;20022;31
2023/01/05 06:34:49;;;;;;;7.90;2.73;;;8.50;99.90;;;;;;2603713;54;20866;31
2023/01/05 06:37:36;;;;;;;6.40;2.03;;;8.50;99.90;;;;;;2603485;54;21102;31
2023/01/05 06:40:13;;;;;;;3.55;1.30;;;8.60;99.90;;;;;;2603727;54;20925;31
2023/01/05 06:42:48;;;;;;;5.13;1.65;;;8.50;99.90;;;;;;2603675;54;20980;31
2023/01/05 06:45:27;;;;;;;4.80;1.10;;;8.60;99.90;;;;;;2603838;54;20061;31
2023/01/05 06:48:01;;;;;;;6.72;1.23;;;8.60;99.90;;;;;;2603721;54;20027;31
2023/01/05 06:50:37;;;;;;;4.70;1.45;;;8.50;99.90;;;;;;2621911;46;20037;31
2023/01/05 06:53:13;;;;;;;7.30;1.75;;;8.60;99.90;;;;;;2603657;54;20895;31
2023/01/05 06:55:48;;;;;;;5.15;0.90;;;8.50;99.90;;;;;;2603480;54;20042;31
2023/01/05 06:58:23;;;;;;;7.93;1.10;;;8.60;99.90;;;;;;2603510;54;20037;31
2023/01/05 07:01:02;;;;;;;4.05;1.17;;;8.60;99.90;;;;;;2603336;54;20585;31
2023/01/05 07:03:38;;;;;;;5.47;0.80;;;8.60;99.90;;;;;;2603756;54;20888;31
2023/01/05 07:06:13;;;;;;;8.33;1.43;;;8.60;99.90;;;;;;2603588;54;20022;31
2023/01/05 07:08:49;;;;;;;5.00;1.23;;;8.60;99.90;;;;;;2603446;54;20034;31
2023/01/05 07:11:30;;;;;;;3.77;1.27;;;8.70;99.90;;;;;;2603578;54;21002;31
2023/01/05 07:14:06;;;;;;;4.60;1.00;;;8.70;99.90;;;;;;2603775;54;20030;31
2023/01/05 07:16:43;;;;;;;4.30;1.37;;;8.70;99.90;;;;;;2701765;39;21633;31
2023/01/05 07:19:22;;;;;;;5.43;1.75;;;8.70;99.90;;;;;;2621617;46;20046;31
2023/01/05 07:21:58;;;;;;;5.50;0.93;;;8.70;99.90;;;;;;2603585;54;20530;31
2023/01/05 07:24:34;;;;;;;8.02;1.25;;;8.80;99.90;;;;;;2621781;46;20096;31
2023/01/05 07:27:09;;;;;;;5.55;1.20;;;8.70;99.90;;;;;;2603550;54;20033;31
2023/01/05 07:29:45;;;;;;;6.82;1.58;;;8.80;99.90;;;;;;2603435;54;20916;31
2023/01/05 07:32:24;;;;;;;6.30;1.48;;;8.80;99.90;;;;;;2603384;54;20604;31
2023/01/05 07:35:02;;;;;;;6.33;1.33;;;8.80;99.90;;;;;;2603194;54;20022;31
2023/01/05 07:37:37;;;;;;;6.00;1.08;;;8.90;99.90;;;;;;2603331;54;20916;31
2023/01/05 07:40:14;;;;;;;9.18;2.17;;;8.90;99.90;;;;;;2602983;54;20916;31
2023/01/05 07:42:52;;;;;;;6.18;1.27;;;9.00;99.90;;;;;;2603382;54;20809;31
2023/01/05 07:45:29;;;;;;;4.55;1.35;;;9.10;99.90;;;;;;2603413;54;20573;31
2023/01/05 07:48:08;;;;;;;8.27;1.20;;;9.10;99.90;;;;;;2603411;54;20906;31
2023/01/05 07:50:43;;;;;;;7.40;1.85;;;9.10;99.90;;;;;;2603186;54;20153;31
2023/01/05 07:53:20;;;;;;;8.80;1.60;;;9.20;99.90;;;;;;2603337;54;19935;31
2023/01/05 07:55:59;;;;;;;5.50;1.87;;;9.20;99.90;;;;;;2603254;54;20081;31
2023/01/05 07:58:35;;;;;;;7.57;1.88;;;9.30;99.90;;;;;;2603261;54;21154;31
2023/01/05 08:01:10;;;;;;;6.75;1.90;;;9.30;99.90;;;;;;2603227;54;20876;31
2023/01/05 08:03:50;;;;;;;;;;;9.30;99.90;;;;;;2702361;39;20535;31
2023/01/05 08:06:27;;;;;;;6.53;1.92;;;9.30;99.90;;;;;;2603456;54;19954;31
2023/01/05 08:10:27;;;;;;;5.25;1.10;;;9.40;99.90;;;;;;2603435;54;19935;31
2023/01/05 08:11:58;;;;;;;9.90;1.63;;;9.40;99.90;;;;;;2603140;54;20911;31
2023/01/05 08:14:33;;;;;;;6.60;1.47;;;9.40;99.90;;;;;;2621610;46;20029;31
2023/01/05 08:17:08;;;;;;;7.13;1.23;;;9.40;99.90;;;;;;2603203;54;21117;31
2023/01/05 08:19:47;;;;;;;9.57;1.52;;;9.50;99.90;;;;;;2603142;54;20945;31
2023/01/05 08:22:22;;;;;;;6.30;1.27;;;9.50;99.90;;;;;;2603282;54;20805;31
2023/01/05 08:24:58;;;;;;;8.55;1.67;;;9.50;99.90;;;;;;2603278;54;20029;31
2023/01/05 08:27:33;;;;;;;5.90;1.30;;;9.60;99.90;;;;;;2621586;46;20022;31
2023/01/05 08:30:10;;;;;;;;;;;9.60;99.90;;;;;;2603316;54;20026;31
2023/01/05 08:32:47;;;;;;;6.47;1.17;;;9.60;99.90;;;;;;2603363;54;19994;31
2023/01/05 08:35:27;;;;;;;8.03;1.40;;;9.60;99.90;;;;;;2603076;54;20034;31
2023/01/05 08:38:04;;;;;;;7.10;1.40;;;9.60;99.90;;;;;;2602990;54;20030;31
2023/01/05 08:40:41;;;;;;;6.32;1.42;;;9.60;99.90;;;;;;2602440;54;20025;31
2023/01/05 08:43:15;;;;;;;4.70;1.05;;;9.80;99.90;;;;;;2603071;54;20821;31
2023/01/05 08:45:52;;;;;;;8.40;1.60;;;9.80;99.90;;;;;;2603086;54;20038;31
2023/01/05 08:48:30;;;;;;;3.30;0.90;;;9.80;99.90;;;;;;2603237;54;20786;31
2023/01/05 08:51:09;;;;;;;7.78;1.88;;;9.90;99.90;;;;;;2603130;54;20026;31
2023/01/05 08:53:44;;;;;;;6.95;1.70;;;9.80;99.90;;;;;;2602803;54;20027;31
2023/01/05 08:56:21;;;;;;;7.32;1.27;;;9.90;99.90;;;;;;2603145;54;20085;31
2023/01/05 08:58:57;;;;;;;5.53;1.10;;;9.80;99.90;;;;;;2603291;54;19939;31
2023/01/05 09:01:33;;;;;;;7.03;1.17;;;9.80;99.90;;;;;;2603075;54;20032;31
2023/01/05 09:04:09;;;;;;;4.70;1.00;;;9.90;99.90;;;;;;2602993;54;20109;31
2023/01/05 09:06:48;;;;;;;6.15;1.15;;;9.90;99.90;;;;;;2602878;54;20902;31
2023/01/05 09:09:24;;;;;;;5.18;1.10;;;9.90;99.90;;;;;;2603080;54;20033;31
2023/01/05 09:12:00;;;;;;;5.40;1.10;;;9.90;99.90;;;;;;2602907;54;20034;31
2023/01/05 09:14:35;;;;;;;4.63;1.80;;;9.90;99.90;;;;;;2602318;54;20049;31
2023/01/05 09:17:10;;;;;;;8.77;1.63;;;9.90;99.90;;;;;;2621172;47;21207;31
2023/01/05 09:19:46;;;;;;;8.55;1.75;;;9.80;99.90;;;;;;2602923;54;20042;31
2023/01/05 09:22:25;;;;;;;9.10;1.58;;;9.90;99.90;;;;;;2603046;54;20926;31
2023/01/05 09:25:02;;;;;;;7.43;1.63;;;9.80;99.90;;;;;;2602251;54;20027;31
2023/01/05 09:27:40;;;;;;;9.20;1.98;;;9.80;99.90;;;;;;2602910;54;20855;31
2023/01/05 09:30:18;;;;;;;9.00;1.75;;;9.80;99.90;;;;;;2603134;54;20048;31
2023/01/05 09:32:55;;;;;;;5.63;1.30;;;9.70;99.90;;;;;;2603070;54;20053;31
2023/01/05 09:35:32;;;;;;;5.60;1.30;;;9.70;99.90;;;;;;2602906;54;21301;31
2023/01/05 09:38:09;;;;;;;;;;;9.60;99.90;;;;;;2603377;54;20042;31
2023/01/05 09:40:45;;;;;;;6.93;1.63;;;9.50;99.90;;;;;;2602131;54;20868;31
2023/01/05 09:43:25;;;;;;;5.90;1.70;;;9.50;99.90;;;;;;2602528;54;20829;31
2023/01/05 09:46:00;;;;;;;7.75;1.70;;;9.40;99.90;;;;;;2603086;54;20027;31
2023/01/05 09:48:38;;;;;;;10.38;1.70;;;9.40;99.90;;;;;;2602806;54;20049;31
2023/01/05 09:51:17;;;;;;;11.00;1.93;;;9.40;99.90;;;;;;2602993;54;20819;31
2023/01/05 09:53:55;;;;;;;5.45;1.40;;;9.40;99.90;;;;;;2602888;54;20042;31
2023/01/05 09:56:32;;;;;;;9.48;1.70;;;9.40;99.90;;;;;;2603152;54;20046;31
2023/01/05 09:59:27;;;;;;;7.78;1.77;;;9.40;99.90;;;;;;2602718;54;20045;31
2023/01/05 10:02:03;;;;;;;12.70;1.70;;;9.40;99.90;;;;;;2621102;47;20085;31
2023/01/05 10:04:38;;;;;;;8.45;1.85;;;9.30;99.90;;;;;;2603321;54;20172;31
2023/01/05 10:07:20;;;;;;;7.30;1.63;;;9.40;99.90;;;;;;2603427;54;20793;31
2023/01/05 10:10:00;;;;;;;7.47;1.87;;;9.40;99.90;;;;;;2603707;54;20883;31
2023/01/05 10:15:27;;;;;;;7.63;1.83;;;9.40;99.90;;;;;;2603634;54;20273;31
2023/01/05 10:18:01;;;;;;;7.35;2.10;;;9.40;99.90;;;;;;2603762;54;20874;31
2023/01/05 10:20:46;;;;;;;6.65;1.52;;;9.40;99.90;;;;;;2602916;54;20034;31
2023/01/05 10:23:46;;;;;;;7.68;2.17;;;9.40;99.90;;;;;;2602805;54;20831;31
2023/01/05 10:26:27;;;;;;;6.35;1.95;;;9.40;99.90;;;;;;2602620;54;20033;31
2023/01/05 10:29:04;;;;;;;10.45;2.47;;;9.40;99.90;;;;;;2603222;54;20093;31
2023/01/05 10:31:47;;;;;;;11.77;2.13;;;9.40;99.90;;;;;;2603530;54;20816;31
2023/01/05 10:34:23;;;;;;;7.28;2.08;;;9.30;99.90;;;;;;2602760;54;20953;31
2023/01/05 10:37:11;;;;;;;7.25;1.88;;;9.30;99.90;;;;;;2621635;46;20050;31
2023/01/05 10:40:05;;;;;;;4.43;0.90;;;9.10;99.90;;;;;;2602948;54;20039;31
2023/01/05 10:43:17;;;;;;;3.10;0.60;;;8.90;99.90;;;;;;2602866;54;20815;31
2023/01/05 10:45:51;;;;;;;4.80;0.60;;;8.50;99.90;;;;;;2602929;54;20023;31
2023/01/05 10:48:47;;;;;;;2.63;0.60;;;8.30;99.90;;;;;;2603378;54;20881;31
2023/01/05 10:51:22;;;;;;;3.15;0.60;;;8.10;99.90;;;;;;2603503;54;20038;31
2023/01/05 10:53:58;;;;;;;;;;;7.90;99.90;;;;;;2603672;54;20620;31
2023/01/05 10:56:34;;;;;;;3.75;0.88;;;7.80;99.90;;;;;;2603506;54;19938;31
2023/01/05 10:59:14;;;;;;;2.08;0.40;;;7.80;99.90;;;;;;2603515;54;20029;31
2023/01/05 11:01:49;;;;;;;3.38;0.50;;;7.70;99.90;;;;;;2603409;54;20022;31
2023/01/05 11:04:25;;;;;;;0.60;0.20;;;7.70;99.90;;;;;;2603480;54;20029;31
2023/01/05 11:07:12;;;;;;;1.00;0.20;;;7.60;99.90;;;;;;2603624;54;20092;31
2023/01/05 11:09:49;;;;;;;2.42;0.45;;;7.60;99.90;;;;;;2603369;54;21230;31
2023/01/05 11:12:26;;;;;;;0.85;0.30;;;7.60;99.90;;;;;;2603246;54;20944;31
2023/01/05 11:15:04;;;;;;;1.80;0.20;;;7.50;99.90;;;;;;2603141;54;20026;31
2023/01/05 11:17:39;;;;;;;1.47;0.30;;;7.50;99.90;;;;;;2603445;54;20053;31
2023/01/05 11:20:18;;;;;;;2.67;0.25;;;7.50;99.90;;;;;;2622002;46;20023;31
2023/01/05 11:22:52;;;;;;;1.02;0.40;;;7.50;99.90;;;;;;2603578;54;20022;31
2023/01/05 11:25:31;;;;;;;0.35;0.20;;;7.50;99.90;;;;;;2621664;46;20203;31
2023/01/05 11:28:13;;;;;;;1.35;0.20;;;7.50;99.90;;;;;;2602555;54;20064;31
2023/01/05 11:31:00;;;;;;;1.50;0.23;;;7.60;99.90;;;;;;2603434;54;20856;31
2023/01/05 11:33:40;;;;;;;1.15;0.40;;;7.50;99.90;;;;;;2603464;54;20026;31
2023/01/05 11:36:16;;;;;;;1.83;0.22;;;7.60;99.90;;;;;;2603451;54;20022;31
2023/01/05 11:38:52;;;;;;;;;;;7.60;99.90;;;;;;2603572;54;20026;31
2023/01/05 11:41:28;;;;;;;0.70;0.20;;;7.60;99.90;;;;;;2622069;46;20803;31
2023/01/05 11:44:04;;;;;;;0.82;0.32;;;7.60;99.90;;;;;;2603395;54;20084;31
2023/01/05 11:46:46;;;;;;;;;;;7.60;99.90;;;;;;2603357;54;22393;31
2023/01/05 11:49:21;;;;;;;1.77;0.38;;;7.70;99.90;;;;;;2603244;54;20854;31
2023/01/05 11:51:55;;;;;;;1.20;0.50;;;7.70;99.90;;;;;;2621455;46;22446;31
2023/01/05 11:54:38;;;;;;;2.22;0.70;;;7.80;99.90;;;;;;2603235;54;20925;31
2023/01/05 11:57:17;;;;;;;1.35;0.50;;;7.80;99.90;;;;;;2603333;54;20172;31
2023/01/05 11:59:54;;;;;;;2.13;0.52;;;7.80;99.90;;;;;;2603308;54;20886;31
2023/01/05 12:02:51;;;;;;;2.28;0.60;;;7.80;99.90;;;;;;2701760;39;20462;31
2023/01/05 12:05:30;;;;;;;1.35;0.45;;;7.80;99.90;;;;;;2603420;54;20054;31
2023/01/05 12:08:06;;;;;;;1.93;0.50;;;7.80;99.90;;;;;;2603141;54;20044;31
2023/01/05 12:10:50;;;;;;;2.35;0.63;;;7.90;99.90;;;;;;2603314;54;21035;31
2023/01/05 12:14:02;;;;;;;2.05;0.43;;;7.90;99.90;;;;;;2603150;54;20865;31
2023/01/05 12:16:37;;;;;;;1.80;0.50;;;8.00;99.90;;;;;;2621898;46;20817;31
2023/01/05 12:19:21;;;;;;;1.45;0.50;;;8.10;99.90;;;;;;2603254;54;20027;31
2023/01/05 12:22:03;;;;;;;1.70;0.57;;;8.10;99.90;;;;;;2603233;54;20052;31
2023/01/05 12:24:47;;;;;;;3.55;0.85;;;8.20;99.90;;;;;;2603254;54;20825;31
2023/01/05 12:27:30;;;;;;;2.28;0.65;;;8.20;99.90;;;;;;2603185;54;20911;31
2023/01/05 12:30:14;;;;;;;3.20;0.70;;;8.20;99.90;;;;;;2603194;54;20940;31
2023/01/05 12:33:45;;;;;;;1.38;0.70;;;8.20;99.90;;;;;;2621312;46;21008;31
2023/01/05 12:36:38;;;;;;;3.45;0.85;;;8.20;99.90;;;;;;2621239;46;22408;31
2023/01/05 12:39:39;;;;;;;1.95;0.70;;;8.30;99.90;;;;;;2603373;54;20038;31
2023/01/05 12:42:23;;;;;;;2.88;1.48;;;8.30;99.90;;;;;;2602955;54;20092;31
2023/01/05 12:45:20;;;;;;;6.25;1.30;;;8.40;99.90;;;;;;2602770;54;20049;31
2023/01/05 12:48:05;;;;;;;2.97;1.10;;;8.50;99.90;;;;;;2603008;54;20032;31
2023/01/05 12:50:41;;;;;;;3.60;1.20;;;8.60;99.90;;;;;;2603149;54;21030;31
2023/01/05 12:53:24;;;;;;;6.20;1.30;;;8.60;99.90;;;;;;2602945;54;20027;31
2023/01/05 12:56:05;;;;;;;2.65;0.90;;;8.70;99.90;;;;;;2603261;54;20033;31
2023/01/05 12:58:42;;;;;;;2.03;0.70;;;8.70;99.90;;;;;;2602984;54;20882;31
2023/01/05 13:01:25;;;;;;;5.70;2.00;;;8.70;99.90;;;;;;2603144;54;20112;31
2023/01/05 13:04:02;;;;;;;4.45;1.00;;;8.70;99.90;;;;;;2603239;54;20045;31
2023/01/05 13:06:39;;;;;;;4.50;1.05;;;8.70;99.90;;;;;;2603210;54;20037;31
2023/01/05 13:09:15;;;;;;;2.55;0.65;;;8.70;99.90;;;;;;2621368;46;19935;31
2023/01/05 13:11:55;;;;;;;3.30;1.08;;;8.70;99.90;;;;;;2602396;54;20113;31
2023/01/05 13:14:31;;;;;;;6.50;1.17;;;8.70;99.90;;;;;;2602950;54;20850;31
2023/01/05 13:17:07;;;;;;;5.18;1.48;;;8.70;99.90;;;;;;2603177;54;20908;31
2023/01/05 13:19:45;;;;;;;4.47;1.42;;;8.80;99.90;;;;;;2602964;54;20920;31
2023/01/05 13:22:25;;;;;;;4.15;1.30;;;8.80;99.90;;;;;;2603178;54;20821;31
2023/01/05 13:25:02;;;;;;;4.15;1.73;;;8.90;99.90;;;;;;2602844;54;20140;31
2023/01/05 13:27:41;;;;;;;2.35;0.80;;;8.90;99.90;;;;;;2701605;39;20390;31
2023/01/05 13:30:23;;;;;;;4.55;1.35;;;9.00;99.90;;;;;;2603331;54;20830;31
2023/01/05 13:33:16;;;;;;;5.00;1.65;;;9.00;99.90;;;;;;2603068;54;20825;31
2023/01/05 13:35:57;;;;;;;3.45;0.98;;;9.10;99.90;;;;;;2602904;54;20019;31
2023/01/05 13:39:06;;;;;;;3.93;1.07;;;9.10;99.90;;;;;;2603057;54;20030;31
2023/01/05 13:42:08;;;;;;;3.33;0.65;;;9.10;99.90;;;;;;2603711;54;20072;31
2023/01/05 13:45:12;;;;;;;5.18;1.20;;;9.10;99.90;;;;;;2603704;54;20042;31
2023/01/05 13:50:49;;;;;;;2.50;0.70;;;9.20;99.90;;;;;;2603684;54;20895;31
2023/01/05 13:53:25;;;;;;;2.25;0.60;;;9.20;99.90;;;;;;2702158;39;20497;31
2023/01/05 13:55:59;;;;;;;3.45;0.68;;;9.20;99.90;;;;;;2603607;54;22359;31
2023/01/05 13:58:37;;;;;;;2.33;0.60;;;9.20;99.90;;;;;;2603105;54;20038;31
2023/01/05 14:01:15;;;;;;;4.00;0.63;;;9.20;99.90;;;;;;2603738;54;20076;31
2023/01/05 14:03:52;;;;;;;2.70;0.50;;;9.20;99.90;;;;;;2603553;54;20030;31
2023/01/05 14:06:31;;;;;;;1.30;0.50;;;9.20;99.90;;;;;;2603487;54;20031;31
2023/01/05 14:09:11;;;;;;;2.95;0.47;;;9.20;99.90;;;;;;2603779;54;20132;31
2023/01/05 14:12:22;;;;;;;2.40;0.40;;;9.10;99.90;;;;;;2603670;54;20026;31
2023/01/05 14:15:08;;;;;;;2.85;0.50;;;9.10;99.90;;;;;;2603267;54;20027;31
2023/01/05 14:17:54;;;;;;;3.03;0.82;;;9.10;99.90;;;;;;2603636;54;20812;31
2023/01/05 14:20:53;;;;;;;2.85;0.60;;;9.10;99.90;;;;;;2603778;54;20937;31
2023/01/05 14:23:57;;;;;;;2.35;0.65;;;9.00;99.90;;;;;;2603635;54;20915;31
2023/01/05 14:27:02;;;;;;;1.60;0.60;;;8.90;99.90;;;;;;2603962;54;21368;31
2023/01/05 14:30:04;;;;;;;1.67;0.50;;;8.90;99.90;;;;;;2603216;54;20940;31
2023/01/05 14:32:43;;;;;;;4.50;0.40;;;8.90;99.90;;;;;;2603740;54;20149;31
2023/01/05 14:35:24;;;;;;;5.63;1.70;;;8.90;99.90;;;;;;2603575;54;20924;31
2023/01/05 14:38:02;;;;;;;1.80;0.45;;;8.90;99.90;;;;;;2622254;46;20026;31
2023/01/05 14:40:47;;;;;;;2.00;0.40;;;8.80;99.90;;;;;;2603372;54;20101;31
2023/01/05 14:43:38;;;;;;;3.20;0.43;;;8.80;99.90;;;;;;2603554;54;22362;31
2023/01/05 14:46:14;;;;;;;1.88;0.32;;;8.80;99.90;;;;;;2603534;54;20997;31
2023/01/05 14:49:02;;;;;;;1.48;0.30;;;8.80;99.90;;;;;;2603514;54;20049;31